createdAt,value
2018-03-23T00:00:32.546Z,0
2018-03-23T00:01:12.941Z,0
2018-03-23T00:01:53.377Z,0
2018-03-23T00:02:33.739Z,0
2018-03-23T00:03:14.162Z,0
2018-03-23T00:03:54.538Z,0
2018-03-23T00:04:34.944Z,0
2018-03-23T00:05:15.320Z,0
2018-03-23T00:05:55.728Z,0
2018-03-23T00:06:36.190Z,0
2018-03-23T00:07:16.507Z,0
2018-03-23T00:07:56.950Z,0
2018-03-23T00:08:37.320Z,0
2018-03-23T00:09:17.700Z,0
2018-03-23T00:09:58.121Z,0
2018-03-23T00:10:38.469Z,0
2018-03-23T00:11:18.874Z,0
2018-03-23T00:11:59.294Z,0
2018-03-23T00:12:39.678Z,0
2018-03-23T00:13:20.094Z,0
2018-03-23T00:14:00.497Z,0
2018-03-23T00:14:40.818Z,0
2018-03-23T00:15:21.245Z,0
2018-03-23T00:16:01.599Z,0
2018-03-23T00:16:42.005Z,0
2018-03-23T00:17:22.424Z,0
2018-03-23T00:18:02.771Z,0
2018-03-23T00:18:43.162Z,0
2018-03-23T00:19:23.553Z,0
2018-03-23T00:20:03.940Z,0
2018-03-23T00:20:44.315Z,0
2018-03-23T00:21:24.727Z,0
2018-03-23T00:22:05.149Z,0
2018-03-23T00:22:45.495Z,0
2018-03-23T00:23:25.970Z,0
2018-03-23T00:24:06.309Z,0
2018-03-23T00:24:46.709Z,0
2018-03-23T00:25:27.069Z,0
2018-03-23T00:26:07.493Z,0
2018-03-23T00:26:47.823Z,0
2018-03-23T00:27:28.215Z,0
2018-03-23T00:28:08.646Z,0
2018-03-23T00:28:49.235Z,0
2018-03-23T00:29:29.784Z,0
2018-03-23T00:30:10.228Z,0
2018-03-23T00:30:50.566Z,0
2018-03-23T00:31:31.005Z,0
2018-03-23T00:32:11.360Z,0
2018-03-23T00:32:51.766Z,0
2018-03-23T00:33:32.150Z,0
2018-03-23T00:34:12.548Z,0
2018-03-23T00:34:52.978Z,0
2018-03-23T00:35:33.366Z,0
2018-03-23T00:36:13.690Z,0
2018-03-23T00:36:54.068Z,0
2018-03-23T00:37:34.473Z,0
2018-03-23T00:38:14.831Z,0
2018-03-23T00:38:55.289Z,0
2018-03-23T00:39:35.633Z,0
2018-03-23T00:40:16.024Z,0
2018-03-23T00:40:56.408Z,0
2018-03-23T00:41:36.788Z,0
2018-03-23T00:42:17.141Z,0
2018-03-23T00:42:57.583Z,0
2018-03-23T00:43:37.934Z,0
2018-03-23T00:44:18.364Z,0
2018-03-23T00:44:58.689Z,0
2018-03-23T00:45:39.101Z,0
2018-03-23T00:46:19.471Z,0
2018-03-23T00:46:59.905Z,0
2018-03-23T00:47:40.455Z,0
2018-03-23T00:48:20.632Z,0
2018-03-23T00:49:01.060Z,0
2018-03-23T00:49:41.438Z,0
2018-03-23T00:50:21.799Z,0
2018-03-23T00:51:02.202Z,0
2018-03-23T00:51:42.606Z,0
2018-03-23T00:52:23.007Z,0
2018-03-23T00:53:03.420Z,0
2018-03-23T00:53:43.779Z,0
2018-03-23T00:54:24.190Z,0
2018-03-23T00:55:04.899Z,0
2018-03-23T00:55:45.315Z,0
2018-03-23T00:56:26.165Z,0
2018-03-23T00:57:06.279Z,0
2018-03-23T00:57:46.729Z,0
2018-03-23T00:58:27.075Z,0
2018-03-23T00:59:07.446Z,0
2018-03-23T00:59:47.815Z,0
2018-03-23T01:00:28.308Z,0
2018-03-23T01:01:08.656Z,0
2018-03-23T01:01:49.026Z,0
2018-03-23T01:02:29.419Z,0
2018-03-23T01:03:09.829Z,0
2018-03-23T01:03:50.207Z,0
2018-03-23T01:04:30.651Z,0
2018-03-23T01:05:11.059Z,0
2018-03-23T01:05:51.478Z,0
2018-03-23T01:06:31.853Z,0
2018-03-23T01:07:12.174Z,0
2018-03-23T01:07:52.605Z,0
2018-03-23T01:08:33.451Z,0
2018-03-23T01:09:13.794Z,0
2018-03-23T01:09:54.149Z,0
2018-03-23T01:10:34.694Z,0
2018-03-23T01:11:15.006Z,0
2018-03-23T01:11:55.318Z,0
2018-03-23T01:12:35.760Z,0
2018-03-23T01:13:16.092Z,0
2018-03-23T01:13:56.520Z,0
2018-03-23T01:14:36.907Z,0
2018-03-23T01:15:17.328Z,0
2018-03-23T01:15:57.781Z,0
2018-03-23T01:16:38.092Z,0
2018-03-23T01:17:18.548Z,0
2018-03-23T01:17:58.919Z,0
2018-03-23T01:18:39.242Z,0
2018-03-23T01:19:19.641Z,0
2018-03-23T01:20:00.069Z,0
2018-03-23T01:20:40.438Z,0
2018-03-23T01:21:20.853Z,0
2018-03-23T01:22:01.214Z,0
2018-03-23T01:22:41.620Z,0
2018-03-23T01:23:21.998Z,0
2018-03-23T01:24:02.403Z,0
2018-03-23T01:24:42.884Z,0
2018-03-23T01:25:23.210Z,0
2018-03-23T01:26:03.657Z,0
2018-03-23T01:26:44.187Z,0
2018-03-23T01:27:24.536Z,0
2018-03-23T01:28:04.923Z,0
2018-03-23T01:28:45.339Z,0
2018-03-23T01:29:25.752Z,0
2018-03-23T01:30:06.107Z,0
2018-03-23T01:30:46.584Z,0
2018-03-23T01:31:26.933Z,0
2018-03-23T01:32:07.341Z,0
2018-03-23T01:32:47.781Z,0
2018-03-23T01:33:28.384Z,0
2018-03-23T01:34:08.547Z,0
2018-03-23T01:34:48.959Z,0
2018-03-23T01:35:29.873Z,0
2018-03-23T01:36:10.707Z,0
2018-03-23T01:36:51.151Z,0
2018-03-23T01:37:31.483Z,0
2018-03-23T01:38:11.912Z,0
2018-03-23T01:38:52.292Z,0
2018-03-23T01:39:32.691Z,0
2018-03-23T01:40:13.094Z,0
2018-03-23T01:40:53.462Z,0
2018-03-23T01:41:33.853Z,0
2018-03-23T01:42:14.247Z,0
2018-03-23T01:42:54.690Z,0
2018-03-23T01:43:35.047Z,0
2018-03-23T01:44:15.429Z,0
2018-03-23T01:44:55.818Z,0
2018-03-23T01:45:36.237Z,0
2018-03-23T01:46:16.594Z,0
2018-03-23T01:46:56.991Z,0
2018-03-23T01:47:37.357Z,0
2018-03-23T01:48:17.774Z,0
2018-03-23T01:48:58.156Z,0
2018-03-23T01:49:38.614Z,0
2018-03-23T01:50:18.988Z,0
2018-03-23T01:50:59.397Z,0
2018-03-23T01:51:39.809Z,0
2018-03-23T01:52:20.221Z,0
2018-03-23T01:53:00.691Z,0
2018-03-23T01:53:41.017Z,0
2018-03-23T01:54:21.460Z,0
2018-03-23T01:55:01.878Z,0
2018-03-23T01:55:42.251Z,0
2018-03-23T01:56:22.641Z,0
2018-03-23T01:57:03.068Z,0
2018-03-23T01:57:43.433Z,0
2018-03-23T01:58:23.799Z,0
2018-03-23T01:59:04.193Z,0
2018-03-23T01:59:44.618Z,0
2018-03-23T02:00:24.977Z,0
2018-03-23T02:01:05.401Z,0
2018-03-23T02:01:45.807Z,0
2018-03-23T02:02:26.165Z,0
2018-03-23T02:03:06.651Z,0
2018-03-23T02:03:46.986Z,0
2018-03-23T02:04:27.354Z,0
2018-03-23T02:05:07.781Z,0
2018-03-23T02:05:48.204Z,0
2018-03-23T02:06:28.550Z,0
2018-03-23T02:07:08.941Z,0
2018-03-23T02:07:49.522Z,0
2018-03-23T02:08:29.827Z,0
2018-03-23T02:09:10.183Z,0
2018-03-23T02:09:50.752Z,0
2018-03-23T02:10:31.061Z,0
2018-03-23T02:11:11.418Z,0
2018-03-23T02:11:51.869Z,0
2018-03-23T02:12:32.290Z,0
2018-03-23T02:13:12.652Z,0
2018-03-23T02:13:53.120Z,0
2018-03-23T02:14:34.237Z,0
2018-03-23T02:15:14.596Z,0
2018-03-23T02:15:55.010Z,0
2018-03-23T02:16:37.724Z,0
2018-03-23T02:17:17.121Z,0
2018-03-23T02:17:57.605Z,0
2018-03-23T02:18:37.932Z,0
2018-03-23T02:19:18.337Z,0
2018-03-23T02:19:58.771Z,0
2018-03-23T02:20:39.118Z,0
2018-03-23T02:21:19.568Z,0
2018-03-23T02:21:59.948Z,0
2018-03-23T02:22:40.340Z,0
2018-03-23T02:23:20.835Z,0
2018-03-23T02:24:01.190Z,0
2018-03-23T02:24:41.558Z,0
2018-03-23T02:25:21.948Z,0
2018-03-23T02:26:02.405Z,0
2018-03-23T02:28:30.356Z,0
2018-03-23T02:29:11.261Z,0
2018-03-23T02:29:51.579Z,0
2018-03-23T02:30:32.618Z,0
2018-03-23T02:31:12.991Z,0
2018-03-23T02:31:53.638Z,0
2018-03-23T02:32:34.143Z,0
2018-03-23T02:33:14.404Z,0
2018-03-23T02:33:54.865Z,0
2018-03-23T02:34:35.224Z,0
2018-03-23T02:35:15.654Z,0
2018-03-23T02:35:56.244Z,0
2018-03-23T02:36:36.453Z,0
2018-03-23T02:37:16.844Z,0
2018-03-23T02:37:57.278Z,0
2018-03-23T02:38:37.666Z,0
2018-03-23T02:39:18.021Z,0
2018-03-23T02:39:58.621Z,0
2018-03-23T02:40:38.973Z,0
2018-03-23T02:41:19.366Z,0
2018-03-23T02:41:59.759Z,0
2018-03-23T02:42:40.205Z,0
2018-03-23T02:43:20.602Z,0
2018-03-23T02:44:00.988Z,0
2018-03-23T02:44:41.476Z,0
2018-03-23T02:45:21.891Z,0
2018-03-23T02:46:02.252Z,0
2018-03-23T02:46:42.670Z,0
2018-03-23T02:47:23.166Z,0
2018-03-23T02:48:03.516Z,0
2018-03-23T02:48:44.071Z,0
2018-03-23T02:49:24.443Z,0
2018-03-23T02:50:05.042Z,0
2018-03-23T02:50:45.297Z,0
2018-03-23T02:51:25.774Z,0
2018-03-23T02:52:06.103Z,0
2018-03-23T02:52:46.538Z,0
2018-03-23T02:53:27.084Z,0
2018-03-23T02:54:07.601Z,0
2018-03-23T02:54:47.870Z,0
2018-03-23T02:55:28.292Z,0
2018-03-23T02:56:08.819Z,0
2018-03-23T02:56:49.280Z,0
2018-03-23T02:57:29.854Z,0
2018-03-23T02:58:10.291Z,0
2018-03-23T02:58:50.539Z,0
2018-03-23T02:59:30.940Z,0
2018-03-23T03:00:11.375Z,0
2018-03-23T03:00:52.255Z,0
2018-03-23T03:01:32.313Z,0
2018-03-23T03:02:12.843Z,0
2018-03-23T03:02:53.546Z,0
2018-03-23T03:03:33.639Z,0
2018-03-23T03:04:14.054Z,0
2018-03-23T03:04:54.598Z,0
2018-03-23T03:05:35.176Z,0
2018-03-23T03:06:15.473Z,0
2018-03-23T03:06:55.835Z,0
2018-03-23T03:07:36.849Z,0
2018-03-23T03:08:17.541Z,0
2018-03-23T03:08:58.014Z,0
2018-03-23T03:09:38.178Z,0
2018-03-23T03:10:18.740Z,0
2018-03-23T03:10:59.054Z,0
2018-03-23T03:11:39.465Z,0
2018-03-23T03:12:19.926Z,0
2018-03-23T03:13:00.311Z,0
2018-03-23T03:13:40.955Z,0
2018-03-23T03:14:21.209Z,0
2018-03-23T03:15:01.672Z,0
2018-03-23T03:15:42.616Z,0
2018-03-23T03:16:23.355Z,0
2018-03-23T03:17:04.033Z,0
2018-03-23T03:17:44.207Z,0
2018-03-23T03:18:24.753Z,0
2018-03-23T03:19:05.047Z,0
2018-03-23T03:19:45.532Z,0
2018-03-23T03:20:25.820Z,0
2018-03-23T03:21:06.691Z,0
2018-03-23T03:21:46.724Z,0
2018-03-23T03:22:27.243Z,0
2018-03-23T03:23:07.642Z,0
2018-03-23T03:23:48.524Z,0
2018-03-23T03:24:29.321Z,0
2018-03-23T03:25:09.673Z,0
2018-03-23T03:25:50.239Z,0
2018-03-23T03:26:30.657Z,0
2018-03-23T03:27:10.986Z,0
2018-03-23T03:27:51.691Z,0
2018-03-23T03:28:31.962Z,0
2018-03-23T03:29:12.709Z,0
2018-03-23T03:29:53.139Z,0
2018-03-23T03:30:33.503Z,0
2018-03-23T03:31:14.478Z,0
2018-03-23T03:31:55.762Z,0
2018-03-23T03:32:36.484Z,0
2018-03-23T03:33:16.910Z,0
2018-03-23T03:33:58.949Z,0
2018-03-23T03:34:39.591Z,0
2018-03-23T03:35:21.327Z,0
2018-03-23T03:36:01.754Z,0
2018-03-23T03:36:42.145Z,0
2018-03-23T03:37:22.534Z,0
2018-03-23T03:38:03.196Z,0
2018-03-23T03:38:44.019Z,0
2018-03-23T03:42:45.250Z,0
2018-03-23T03:44:57.452Z,0
2018-03-23T03:45:37.311Z,0
2018-03-23T03:46:17.895Z,0
2018-03-23T03:46:58.110Z,0
2018-03-23T03:47:38.815Z,0
2018-03-23T03:48:18.968Z,0
2018-03-23T03:48:59.389Z,0
2018-03-23T03:49:39.774Z,0
2018-03-23T03:50:20.306Z,0
2018-03-23T03:51:00.617Z,0
2018-03-23T03:51:40.974Z,0
2018-03-23T03:52:21.434Z,0
2018-03-23T03:53:01.841Z,0
2018-03-23T03:53:42.690Z,0
2018-03-23T03:54:22.741Z,0
2018-03-23T03:55:04.059Z,0
2018-03-23T03:55:44.938Z,0
2018-03-23T03:56:25.326Z,0
2018-03-23T03:57:05.732Z,0
2018-03-23T03:57:46.696Z,0
2018-03-23T03:58:27.036Z,0
2018-03-23T03:59:07.743Z,0
2018-03-23T03:59:48.091Z,0
2018-03-23T04:00:28.594Z,0
2018-03-23T04:01:09.113Z,0
2018-03-23T04:01:49.937Z,0
2018-03-23T04:02:32.104Z,0
2018-03-23T04:03:12.421Z,0
2018-03-23T04:03:52.789Z,0
2018-03-23T04:04:33.540Z,0
2018-03-23T04:05:14.112Z,0
2018-03-23T04:05:54.574Z,0
2018-03-23T04:06:35.271Z,0
2018-03-23T04:07:15.635Z,0
2018-03-23T04:07:56.052Z,0
2018-03-23T04:46:18.354Z,0
2018-03-23T04:46:58.868Z,0
2018-03-23T04:47:40.179Z,0
2018-03-23T04:48:20.649Z,0
2018-03-23T04:49:01.145Z,0
2018-03-23T04:49:41.502Z,0
2018-03-23T04:50:21.865Z,0
2018-03-23T04:51:02.257Z,0
2018-03-23T04:51:43.056Z,0
2018-03-23T04:52:23.131Z,0
2018-03-23T04:53:03.538Z,0
2018-03-23T04:53:44.312Z,0
2018-03-23T04:54:24.301Z,0
2018-03-23T04:55:04.690Z,0
2018-03-23T04:55:45.086Z,0
2018-03-23T04:56:25.469Z,0
2018-03-23T04:57:05.916Z,0
2018-03-23T04:57:46.265Z,0
2018-03-23T04:58:26.659Z,0
2018-03-23T04:59:07.085Z,0
2018-03-23T04:59:47.972Z,0
2018-03-23T05:00:28.834Z,0
2018-03-23T05:01:08.690Z,0
2018-03-23T05:01:49.775Z,0
2018-03-23T05:02:30.212Z,0
2018-03-23T05:03:10.637Z,0
2018-03-23T05:03:51.047Z,0
2018-03-23T05:04:31.371Z,0
2018-03-23T05:05:11.828Z,0
2018-03-23T05:05:52.192Z,0
2018-03-23T05:06:32.727Z,0
2018-03-23T05:07:13.032Z,0
2018-03-23T05:07:53.412Z,0
2018-03-23T05:08:33.766Z,0
2018-03-23T05:09:14.200Z,0
2018-03-23T05:09:54.575Z,0
2018-03-23T05:10:35.585Z,0
2018-03-23T05:11:15.824Z,0
2018-03-23T05:11:57.268Z,0
2018-03-23T05:12:37.794Z,0
2018-03-23T05:13:18.979Z,0
2018-03-23T05:13:59.371Z,0
2018-03-23T05:14:39.697Z,0
2018-03-23T05:15:20.186Z,0
2018-03-23T05:16:00.474Z,0
2018-03-23T05:16:40.916Z,0
2018-03-23T05:17:21.265Z,0
2018-03-23T05:18:01.863Z,0
2018-03-23T05:18:42.942Z,0
2018-03-23T05:19:23.320Z,0
2018-03-23T05:20:03.664Z,0
2018-03-23T05:20:44.138Z,0
2018-03-23T05:21:24.528Z,0
2018-03-23T05:22:05.085Z,0
2018-03-23T05:22:46.838Z,0
2018-03-23T05:23:27.192Z,0
2018-03-23T05:24:07.538Z,0
2018-03-23T05:24:48.054Z,0
2018-03-23T05:25:28.324Z,0
2018-03-23T05:26:09.471Z,0
2018-03-23T05:26:49.197Z,0
2018-03-23T05:27:29.648Z,0
2018-03-23T05:28:11.288Z,0
2018-03-23T05:28:51.702Z,0
2018-03-23T05:29:32.133Z,0
2018-03-23T05:30:13.508Z,0
2018-03-23T05:30:53.421Z,0
2018-03-23T05:31:34.328Z,0
2018-03-23T05:32:15.627Z,0
2018-03-23T05:32:57.589Z,0
2018-03-23T05:33:38.854Z,0
2018-03-23T05:34:19.663Z,0
2018-03-23T05:35:00.227Z,0
2018-03-23T05:35:41.382Z,0
2018-03-23T05:36:21.707Z,0
2018-03-23T05:37:02.111Z,0
2018-03-23T05:37:42.596Z,0
2018-03-23T05:38:23.238Z,0
2018-03-23T05:39:03.906Z,0
2018-03-23T05:39:46.012Z,0
2018-03-23T05:40:29.191Z,0
2018-03-23T05:41:10.148Z,0
2018-03-23T05:41:50.594Z,0
2018-03-23T05:42:33.365Z,0
2018-03-23T05:43:14.624Z,0
2018-03-23T05:43:56.386Z,0
2018-03-23T05:44:36.518Z,0
2018-03-23T05:45:18.199Z,0
2018-03-23T05:45:58.619Z,0
2018-03-23T05:46:39.218Z,0
2018-03-23T05:47:19.470Z,0
2018-03-23T05:48:02.679Z,0
2018-03-23T05:48:42.995Z,0
2018-03-23T05:49:24.869Z,0
2018-03-23T05:50:04.977Z,0
2018-03-23T05:50:45.376Z,0
2018-03-23T05:51:25.717Z,0
2018-03-23T05:52:08.300Z,0
2018-03-23T05:52:48.716Z,0
2018-03-23T05:53:29.479Z,0
2018-03-23T05:54:09.941Z,0
2018-03-23T05:54:50.628Z,0
2018-03-23T05:55:31.889Z,0
2018-03-23T05:56:13.402Z,0
2018-03-23T05:56:53.713Z,0
2018-03-23T05:57:34.658Z,0
2018-03-23T05:58:14.978Z,0
2018-03-23T05:58:55.462Z,0
2018-03-23T05:59:35.854Z,0
2018-03-23T06:00:16.897Z,0
2018-03-23T06:00:59.488Z,0
2018-03-23T06:01:41.024Z,0
2018-03-23T06:02:21.384Z,0
2018-03-23T06:03:01.796Z,0
2018-03-23T06:03:57.364Z,0
2018-03-23T06:04:37.763Z,0
2018-03-23T06:05:18.182Z,0
2018-03-23T06:05:59.163Z,0
2018-03-23T06:06:39.635Z,0
2018-03-23T06:07:20.073Z,0
2018-03-23T06:08:00.660Z,0
2018-03-23T06:08:41.139Z,0
2018-03-23T06:09:22.136Z,0
2018-03-23T06:10:02.647Z,0
2018-03-23T06:10:42.968Z,0
2018-03-23T06:11:23.349Z,0
2018-03-23T06:12:03.870Z,0
2018-03-23T06:12:45.834Z,0
2018-03-23T06:13:26.457Z,0
2018-03-23T06:14:08.792Z,0
2018-03-23T06:14:49.634Z,0
2018-03-23T06:15:30.110Z,0
2018-03-23T06:16:11.361Z,0
2018-03-23T06:16:51.760Z,0
2018-03-23T06:17:32.019Z,0
2018-03-23T06:18:12.985Z,0
2018-03-23T06:18:53.435Z,0
2018-03-23T06:19:33.755Z,0
2018-03-23T06:20:14.200Z,0
2018-03-23T06:20:54.563Z,0
2018-03-23T06:21:34.966Z,0
2018-03-23T06:22:15.373Z,0
2018-03-23T06:22:56.042Z,0
2018-03-23T06:23:36.564Z,0
2018-03-23T06:24:16.950Z,0
2018-03-23T06:24:57.530Z,0
2018-03-23T06:25:37.863Z,0
2018-03-23T06:26:18.552Z,0
2018-03-23T06:26:58.687Z,0
2018-03-23T06:27:39.133Z,0
2018-03-23T06:28:19.461Z,0
2018-03-23T06:28:59.935Z,0
2018-03-23T06:29:40.403Z,0
2018-03-23T06:30:22.202Z,0
2018-03-23T06:31:02.617Z,0
2018-03-23T06:31:43.363Z,0
2018-03-23T06:32:24.829Z,0
2018-03-23T06:33:07.963Z,0
2018-03-23T06:33:48.274Z,0
2018-03-23T06:34:28.730Z,0
2018-03-23T06:35:09.983Z,0
2018-03-23T06:35:50.094Z,0
2018-03-23T06:36:30.312Z,0
2018-03-23T06:37:10.678Z,0
2018-03-23T06:37:53.319Z,0
2018-03-23T06:38:32.919Z,0
2018-03-23T06:39:13.842Z,0
2018-03-23T06:39:54.293Z,0
2018-03-23T06:40:34.866Z,0
2018-03-23T06:41:15.189Z,0
2018-03-23T06:41:55.716Z,0
2018-03-23T06:42:35.993Z,0
2018-03-23T06:43:16.405Z,0
2018-03-23T06:43:56.833Z,0
2018-03-23T06:44:37.248Z,0
2018-03-23T06:45:17.623Z,0
2018-03-23T06:45:58.034Z,0
2018-03-23T06:46:38.444Z,0
2018-03-23T06:47:18.861Z,0
2018-03-23T06:47:59.256Z,0
2018-03-23T06:48:39.610Z,0
2018-03-23T06:49:22.365Z,0
2018-03-23T06:50:02.490Z,0
2018-03-23T06:50:42.890Z,5
2018-03-23T06:51:23.386Z,5
2018-03-23T06:52:04.163Z,5
2018-03-23T06:52:46.472Z,5
2018-03-23T06:53:27.686Z,5
2018-03-23T06:54:08.769Z,5
2018-03-23T06:54:49.686Z,5
2018-03-23T06:55:30.460Z,5
2018-03-23T06:56:11.252Z,5
2018-03-23T06:56:52.502Z,5
2018-03-23T06:57:32.705Z,5
2018-03-23T06:58:13.428Z,5
2018-03-23T06:58:55.206Z,5
2018-03-23T06:59:35.243Z,5
2018-03-23T07:00:15.843Z,5
2018-03-23T07:00:57.127Z,5
2018-03-23T07:01:38.004Z,5
2018-03-23T07:02:18.293Z,10
2018-03-23T07:02:59.561Z,10
2018-03-23T07:03:40.808Z,10
2018-03-23T07:04:22.203Z,10
2018-03-23T07:05:01.919Z,10
2018-03-23T07:05:42.453Z,15
2018-03-23T07:06:22.738Z,15
2018-03-23T07:07:03.204Z,15
2018-03-23T07:07:43.608Z,20
2018-03-23T07:08:24.055Z,20
2018-03-23T07:09:04.580Z,20
2018-03-23T07:09:45.434Z,20
2018-03-23T07:10:25.700Z,25
2018-03-23T07:11:09.174Z,30
2018-03-23T07:11:48.764Z,35
2018-03-23T07:12:29.409Z,40
2018-03-23T07:13:09.743Z,40
2018-03-23T07:13:50.331Z,35
2018-03-23T07:14:32.048Z,35
2018-03-23T07:15:12.401Z,30
2018-03-23T07:19:16.909Z,45
2018-03-23T07:20:09.713Z,40
2018-03-23T07:20:50.189Z,40
2018-03-23T07:21:47.141Z,40
2018-03-23T07:25:29.844Z,35
2018-03-23T07:26:14.165Z,35
2018-03-23T07:30:02.718Z,25
2018-03-23T07:30:43.886Z,25
2018-03-23T07:31:24.017Z,25
2018-03-23T07:32:04.667Z,25
2018-03-23T07:32:45.324Z,25
2018-03-23T07:33:25.756Z,25
2018-03-23T07:34:06.079Z,25
2018-03-23T07:34:46.682Z,25
2018-03-23T07:35:27.139Z,25
2018-03-23T07:36:07.875Z,30
2018-03-23T07:36:49.527Z,30
2018-03-23T07:37:32.547Z,30
2018-03-23T07:38:13.199Z,30
2018-03-23T07:38:53.857Z,35
2018-03-23T07:39:34.104Z,35
2018-03-23T07:40:14.685Z,35
2018-03-23T07:40:55.531Z,35
2018-03-23T07:41:36.085Z,35
2018-03-23T07:42:16.367Z,35
2018-03-23T07:44:14.025Z,35
2018-03-23T07:44:56.913Z,35
2018-03-23T07:45:38.179Z,35
2018-03-23T07:46:19.225Z,40
2018-03-23T07:46:59.640Z,40
2018-03-23T07:47:41.223Z,40
2018-03-23T07:48:21.977Z,40
2018-03-23T07:49:02.342Z,45
2018-03-23T07:49:42.975Z,45
2018-03-23T07:50:23.420Z,45
2018-03-23T07:51:06.009Z,45
2018-03-23T07:51:49.386Z,45
2018-03-23T07:52:30.079Z,45
2018-03-23T07:53:10.798Z,45
2018-03-23T07:53:51.509Z,45
2018-03-23T07:54:32.445Z,45
2018-03-23T07:55:13.315Z,45
2018-03-23T07:55:54.074Z,45
2018-03-23T07:56:34.314Z,45
2018-03-23T07:57:15.700Z,45
2018-03-23T07:57:57.320Z,45
2018-03-23T07:58:37.216Z,45
2018-03-23T07:59:18.717Z,45
2018-03-23T08:00:00.780Z,45
2018-03-23T08:00:41.929Z,45
2018-03-23T08:01:23.748Z,45
2018-03-23T08:02:05.697Z,45
2018-03-23T08:02:46.224Z,45
2018-03-23T08:03:26.790Z,45
2018-03-23T08:04:07.912Z,45
2018-03-23T08:04:49.152Z,45
2018-03-23T08:05:31.582Z,45
2018-03-23T08:06:15.783Z,45
2018-03-23T08:06:57.471Z,45
2018-03-23T08:07:37.840Z,45
2018-03-23T08:08:18.327Z,50
2018-03-23T08:08:59.079Z,50
2018-03-23T08:09:40.159Z,55
2018-03-23T08:10:22.286Z,60
2018-03-23T08:11:04.376Z,55
2018-03-23T08:11:45.891Z,55
2018-03-23T08:14:00.571Z,55
2018-03-23T08:14:41.104Z,60
2018-03-23T08:15:21.810Z,65
2018-03-23T08:16:10.116Z,65
2018-03-23T08:16:48.772Z,75
2018-03-23T08:17:29.145Z,85
2018-03-23T08:18:13.223Z,95
2018-03-23T08:18:54.524Z,95
2018-03-23T08:19:39.314Z,90
2018-03-23T08:20:20.663Z,90
2018-03-23T08:21:01.230Z,85
2018-03-23T08:21:41.542Z,85
2018-03-23T08:24:12.367Z,95
2018-03-23T08:33:00.491Z,115
2018-03-23T08:48:53.784Z,125
2018-03-23T08:49:34.163Z,105
2018-03-23T08:50:15.680Z,110
2018-03-23T08:51:45.824Z,105
2018-03-23T08:52:26.203Z,100
2018-03-23T08:53:07.410Z,100
2018-03-23T08:53:47.804Z,100
2018-03-23T08:54:28.376Z,105
2018-03-23T08:55:09.524Z,105
2018-03-23T08:55:49.949Z,105
2018-03-23T08:56:31.558Z,100
2018-03-23T08:57:12.588Z,95
2018-03-23T08:57:53.883Z,95
2018-03-23T08:58:34.299Z,100
2018-03-23T08:59:14.572Z,100
2018-03-23T08:59:55.572Z,100
2018-03-23T09:00:36.406Z,95
2018-03-23T09:01:17.125Z,90
2018-03-23T09:01:58.395Z,90
2018-03-23T09:02:38.964Z,85
2018-03-23T09:03:19.416Z,80
2018-03-23T09:04:02.037Z,80
2018-03-23T09:04:43.005Z,75
2018-03-23T09:05:23.679Z,70
2018-03-23T09:06:04.621Z,70
2018-03-23T09:06:47.147Z,70
2018-03-23T09:07:29.635Z,70
2018-03-23T09:08:10.174Z,70
2018-03-23T09:08:50.663Z,65
2018-03-23T09:09:31.190Z,65
2018-03-23T09:10:12.671Z,70
2018-03-23T09:10:53.449Z,70
2018-03-23T09:11:34.960Z,70
2018-03-23T09:12:15.305Z,75
2018-03-23T09:12:55.835Z,70
2018-03-23T09:13:36.259Z,70
2018-03-23T09:14:16.761Z,70
2018-03-23T09:14:57.716Z,70
2018-03-23T09:15:38.026Z,70
2018-03-23T09:16:18.570Z,65
2018-03-23T09:17:00.751Z,65
2018-03-23T09:17:41.169Z,70
2018-03-23T09:18:22.498Z,65
2018-03-23T09:19:02.548Z,65
2018-03-23T09:19:43.677Z,65
2018-03-23T09:20:25.673Z,65
2018-03-23T09:21:07.325Z,65
2018-03-23T09:21:46.799Z,65
2018-03-23T09:22:27.294Z,65
2018-03-23T09:23:07.665Z,65
2018-03-23T09:23:48.241Z,65
2018-03-23T09:24:29.974Z,65
2018-03-23T09:25:10.424Z,65
2018-03-23T09:25:52.259Z,65
2018-03-23T09:26:34.657Z,65
2018-03-23T09:27:12.961Z,65
2018-03-23T09:27:53.555Z,65
2018-03-23T09:28:34.175Z,65
2018-03-23T09:29:14.651Z,70
2018-03-23T09:29:55.056Z,70
2018-03-23T09:30:35.698Z,70
2018-03-23T09:31:16.418Z,70
2018-03-23T09:31:56.850Z,75
2018-03-23T09:32:37.211Z,75
2018-03-23T09:33:19.463Z,75
2018-03-23T09:33:59.893Z,75
2018-03-23T09:34:40.425Z,80
2018-03-23T09:35:20.911Z,80
2018-03-23T09:36:01.945Z,80
2018-03-23T09:36:44.916Z,80
2018-03-23T09:37:26.209Z,80
2018-03-23T09:38:08.869Z,80
2018-03-23T09:38:50.698Z,80
2018-03-23T09:39:32.967Z,80
2018-03-23T09:40:16.994Z,80
2018-03-23T09:41:00.708Z,75
2018-03-23T09:41:42.319Z,75
2018-03-23T09:42:24.456Z,70
2018-03-23T09:43:05.198Z,70
2018-03-23T09:43:46.945Z,70
2018-03-23T09:44:30.311Z,70
2018-03-23T09:45:10.426Z,70
2018-03-23T09:45:51.962Z,70
2018-03-23T09:46:32.913Z,70
2018-03-23T09:47:14.899Z,70
2018-03-23T09:47:56.306Z,75
2018-03-23T09:48:36.700Z,75
2018-03-23T09:49:18.139Z,75
2018-03-23T09:49:58.545Z,75
2018-03-23T09:50:38.941Z,70
2018-03-23T09:51:19.297Z,70
2018-03-23T09:51:59.759Z,70
2018-03-23T09:52:40.274Z,75
2018-03-23T09:53:20.738Z,75
2018-03-23T09:54:01.837Z,75
2018-03-23T09:54:42.204Z,70
2018-03-23T09:55:22.566Z,70
2018-03-23T09:56:03.146Z,65
2018-03-23T09:56:44.374Z,60
2018-03-23T09:57:24.766Z,60
2018-03-23T09:58:05.324Z,55
2018-03-23T09:58:46.170Z,55
2018-03-23T09:59:27.567Z,55
2018-03-23T10:00:07.189Z,50
2018-03-23T10:00:47.837Z,50
2018-03-23T10:01:31.739Z,50
2018-03-23T10:02:15.454Z,50
2018-03-23T10:02:56.551Z,45
2018-03-23T10:03:38.510Z,45
2018-03-23T10:04:19.113Z,45
2018-03-23T10:04:59.917Z,45
2018-03-23T10:05:42.537Z,45
2018-03-23T10:06:23.724Z,45
2018-03-23T10:07:03.526Z,45
2018-03-23T10:07:43.869Z,45
2018-03-23T10:08:24.233Z,45
2018-03-23T10:09:04.669Z,40
2018-03-23T10:47:08.893Z,30
2018-03-23T10:47:49.335Z,30
2018-03-23T10:48:29.988Z,30
2018-03-23T10:49:10.879Z,30
2018-03-23T10:49:51.321Z,30
2018-03-23T10:50:31.817Z,35
2018-03-23T10:51:12.330Z,35
2018-03-23T10:51:52.820Z,35
2018-03-23T10:52:33.281Z,35
2018-03-23T10:53:13.731Z,35
2018-03-23T10:53:54.745Z,35
2018-03-23T10:54:34.924Z,35
2018-03-23T10:55:15.554Z,35
2018-03-23T10:55:56.975Z,35
2018-03-23T10:56:37.477Z,30
2018-03-23T10:57:17.490Z,30
2018-03-23T10:57:58.301Z,30
2018-03-23T10:58:38.630Z,30
2018-03-23T10:59:19.209Z,30
2018-03-23T10:59:59.680Z,30
2018-03-23T11:00:40.080Z,30
2018-03-23T11:01:20.540Z,30
2018-03-23T11:02:01.001Z,25
2018-03-23T11:02:43.107Z,25
2018-03-23T11:03:25.213Z,25
2018-03-23T11:04:05.821Z,30
2018-03-23T11:04:46.195Z,30
2018-03-23T11:05:27.484Z,30
2018-03-23T11:06:07.946Z,30
2018-03-23T11:06:48.367Z,30
2018-03-23T11:07:29.887Z,30
2018-03-23T11:08:11.000Z,25
2018-03-23T11:08:51.567Z,25
2018-03-23T11:09:31.923Z,25
2018-03-23T11:10:12.384Z,25
2018-03-23T11:10:52.854Z,25
2018-03-23T11:11:33.251Z,25
2018-03-23T11:12:13.666Z,25
2018-03-23T11:12:54.135Z,25
2018-03-23T11:13:34.494Z,25
2018-03-23T11:14:15.299Z,25
2018-03-23T11:16:43.214Z,25
2018-03-23T11:17:23.625Z,30
2018-03-23T11:18:04.106Z,30
2018-03-23T11:18:52.128Z,30
2018-03-23T11:19:38.568Z,25
2018-03-23T11:20:25.590Z,25
2018-03-23T11:21:20.951Z,30
2018-03-23T11:22:16.401Z,30
2018-03-23T11:23:11.394Z,30
2018-03-23T11:23:51.770Z,30
2018-03-23T11:24:32.183Z,30
2018-03-23T11:25:12.637Z,30
2018-03-23T11:29:54.996Z,30
2018-03-23T11:32:08.304Z,30
2018-03-23T11:32:48.352Z,30
2018-03-23T11:33:49.109Z,30
2018-03-23T11:34:44.371Z,30
2018-03-23T11:35:39.364Z,25
2018-03-23T11:36:34.381Z,30
2018-03-23T11:37:29.942Z,30
2018-03-23T11:38:25.176Z,25
2018-03-23T11:39:05.641Z,25
2018-03-23T11:39:46.123Z,25
2018-03-23T11:40:26.385Z,25
2018-03-23T11:41:21.744Z,25
2018-03-23T11:42:05.012Z,25
2018-03-23T11:42:45.592Z,25
2018-03-23T11:43:26.025Z,25
2018-03-23T11:44:21.138Z,25
2018-03-23T11:45:16.067Z,25
2018-03-23T11:45:56.454Z,25
2018-03-23T11:46:39.373Z,25
2018-03-23T11:47:34.689Z,25
2018-03-23T11:48:29.698Z,25
2018-03-23T11:49:10.426Z,25
2018-03-23T11:49:50.681Z,30
2018-03-23T11:50:31.043Z,30
2018-03-23T11:51:11.448Z,30
2018-03-23T11:51:51.867Z,30
2018-03-23T11:52:32.271Z,30
2018-03-23T11:53:12.658Z,30
2018-03-23T11:53:53.048Z,30
2018-03-23T11:54:33.480Z,30
2018-03-23T11:55:13.916Z,30
2018-03-23T11:55:54.331Z,30
2018-03-23T11:56:34.745Z,30
2018-03-23T11:57:15.150Z,30
2018-03-23T11:57:55.597Z,30
2018-03-23T11:58:35.985Z,30
2018-03-23T11:59:31.322Z,30
2018-03-23T12:00:11.796Z,30
2018-03-23T12:01:06.702Z,30
2018-03-23T12:01:47.100Z,30
2018-03-23T12:02:27.506Z,30
2018-03-23T12:03:07.913Z,30
2018-03-23T12:03:48.372Z,30
2018-03-23T12:04:28.840Z,30
2018-03-23T12:05:09.314Z,25
2018-03-23T12:05:49.695Z,25